createdAt,value
2019-02-28T00:00:40.521Z,69.30
2019-02-28T00:01:37.141Z,69.11
2019-02-28T00:02:37.053Z,69.87
2019-02-28T00:03:36.995Z,69.78
2019-02-28T00:04:36.891Z,69.78
2019-02-28T00:05:38.010Z,70.73
2019-02-28T00:06:36.728Z,70.54
2019-02-28T00:07:36.642Z,70.63
2019-02-28T00:08:36.553Z,70.44
2019-02-28T00:09:36.466Z,70.63
2019-02-28T00:10:36.394Z,70.73
2019-02-28T00:11:39.157Z,71.11
2019-02-28T00:12:36.217Z,71.48
2019-02-28T00:13:36.129Z,71.96
2019-02-28T00:14:36.054Z,72.02
2019-02-28T00:15:35.967Z,72.02
2019-02-28T00:16:36.373Z,73.44
2019-02-28T00:17:35.796Z,72.97
2019-02-28T00:18:35.723Z,73.54
2019-02-28T00:19:35.630Z,74.01
2019-02-28T00:20:36.632Z,73.92
2019-02-28T00:21:37.346Z,73.44
2019-02-28T00:22:35.380Z,73.35
2019-02-28T00:23:35.292Z,73.54
2019-02-28T00:24:35.205Z,73.44
2019-02-28T00:25:37.794Z,73.44
2019-02-28T00:26:35.043Z,73.92
2019-02-28T00:27:34.956Z,74.68
2019-02-28T00:28:34.868Z,75.62
2019-02-28T00:29:34.794Z,76.01
2019-02-28T00:30:37.299Z,76.57
2019-02-28T00:31:34.622Z,76.57
2019-02-28T00:32:34.531Z,76.95
2019-02-28T00:33:34.456Z,77.05
2019-02-28T00:34:36.320Z,77.11
2019-02-28T00:35:34.281Z,77.29
2019-02-28T00:36:34.196Z,77.33
2019-02-28T00:37:34.119Z,77.77
2019-02-28T00:38:34.032Z,76.86
2019-02-28T00:39:34.776Z,76.95
2019-02-28T00:40:33.857Z,77.29
2019-02-28T00:41:34.032Z,76.54
2019-02-28T00:42:33.695Z,76.63
2019-02-28T00:43:33.607Z,76.57
2019-02-28T00:44:33.520Z,76.76
2019-02-28T00:45:36.005Z,76.95
2019-02-28T00:46:33.360Z,76.48
2019-02-28T00:47:33.273Z,76.92
2019-02-28T00:48:33.183Z,76.92
2019-02-28T00:49:33.107Z,77.14
2019-02-28T00:50:33.021Z,77.58
2019-02-28T00:51:32.933Z,78.24
2019-02-28T00:52:35.388Z,78.62
2019-02-28T00:53:32.771Z,78.72
2019-02-28T00:54:32.683Z,78.15
2019-02-28T00:55:32.597Z,78.81
2019-02-28T00:56:32.508Z,78.72
2019-02-28T00:57:32.433Z,78.72
2019-02-28T00:58:32.347Z,78.72
2019-02-28T00:59:32.459Z,78.72
2019-02-28T01:00:32.172Z,78.53
2019-02-28T01:01:32.099Z,78.24
2019-02-28T01:02:32.009Z,78.24
2019-02-28T01:03:31.924Z,78.24
2019-02-28T01:04:31.834Z,77.77
2019-02-28T01:05:31.772Z,77.77
2019-02-28T01:06:31.672Z,78.53
2019-02-28T01:07:31.584Z,78.62
2019-02-28T01:08:31.499Z,78.53
2019-02-28T01:09:31.425Z,78.81
2019-02-28T01:10:31.335Z,79.95
2019-02-28T01:11:31.302Z,79.38
2019-02-28T01:12:31.173Z,79.47
2019-02-28T01:13:31.073Z,79.76
2019-02-28T01:14:32.480Z,79.66
2019-02-28T01:15:30.913Z,79.38
2019-02-28T01:16:30.823Z,79.76
2019-02-28T01:17:30.736Z,79.38
2019-02-28T01:18:34.571Z,79.00
2019-02-28T01:19:30.574Z,79.10
2019-02-28T01:20:30.486Z,79.47
2019-02-28T01:21:30.406Z,78.72
2019-02-28T01:22:30.312Z,78.72
2019-02-28T01:23:30.241Z,78.62
2019-02-28T01:24:34.485Z,78.91
2019-02-28T01:25:30.074Z,79.47
2019-02-28T01:26:30.538Z,79.00
2019-02-28T01:27:29.902Z,79.28
2019-02-28T01:28:29.812Z,79.28
2019-02-28T01:29:29.725Z,78.66
2019-02-28T01:30:29.651Z,78.75
2019-02-28T01:31:29.562Z,78.95
2019-02-28T01:32:29.476Z,78.56
2019-02-28T01:33:29.387Z,78.47
2019-02-28T01:34:32.315Z,78.00
2019-02-28T01:35:29.217Z,77.62
2019-02-28T01:36:29.138Z,77.71
2019-02-28T01:37:29.051Z,77.71
2019-02-28T01:38:28.964Z,77.75
2019-02-28T01:39:29.869Z,77.56
2019-02-28T01:40:28.802Z,77.37
2019-02-28T01:41:29.016Z,77.09
2019-02-28T01:42:28.626Z,76.61
2019-02-28T01:43:28.743Z,76.52
2019-02-28T01:44:28.452Z,75.89
2019-02-28T01:45:28.377Z,75.42
2019-02-28T01:46:28.289Z,75.04
2019-02-28T01:47:28.203Z,74.66
2019-02-28T01:48:28.115Z,74.47
2019-02-28T01:49:28.044Z,73.71
2019-02-28T01:50:29.675Z,73.42
2019-02-28T01:51:27.864Z,73.18
2019-02-28T01:52:27.781Z,72.70
2019-02-28T01:53:27.703Z,72.60
2019-02-28T01:54:28.450Z,72.70
2019-02-28T01:55:29.409Z,72.22
2019-02-28T01:56:27.453Z,72.22
2019-02-28T01:57:27.366Z,72.03
2019-02-28T01:58:27.279Z,71.66
2019-02-28T01:59:27.195Z,71.56
2019-02-28T02:00:27.104Z,71.75
2019-02-28T02:01:28.436Z,71.12
2019-02-28T02:02:26.941Z,70.83
2019-02-28T02:03:26.854Z,70.64
2019-02-28T02:04:26.783Z,70.45
2019-02-28T02:05:26.693Z,70.83
2019-02-28T02:06:26.663Z,70.36
2019-02-28T02:07:26.518Z,70.45
2019-02-28T02:08:26.441Z,70.36
2019-02-28T02:09:26.355Z,70.26
2019-02-28T02:10:26.280Z,70.64
2019-02-28T02:11:26.692Z,69.98
2019-02-28T02:12:26.111Z,69.88
2019-02-28T02:13:26.016Z,70.26
2019-02-28T02:14:25.930Z,70.54
2019-02-28T02:15:25.855Z,69.79
2019-02-28T02:16:27.760Z,69.88
2019-02-28T02:17:25.681Z,69.44
2019-02-28T02:18:25.594Z,69.82
2019-02-28T02:19:25.521Z,69.15
2019-02-28T02:20:26.303Z,69.35
2019-02-28T02:21:25.342Z,69.31
2019-02-28T02:22:25.267Z,69.41
2019-02-28T02:23:25.181Z,69.35
2019-02-28T02:24:27.955Z,69.92
2019-02-28T02:25:25.021Z,69.88
2019-02-28T02:26:24.931Z,69.54
2019-02-28T02:27:24.843Z,69.35
2019-02-28T02:28:27.203Z,69.69
2019-02-28T02:29:24.681Z,70.01
2019-02-28T02:30:24.594Z,69.35
2019-02-28T02:31:28.639Z,70.30
2019-02-28T02:32:24.433Z,69.73
2019-02-28T02:33:24.344Z,69.88
2019-02-28T02:34:28.003Z,70.01
2019-02-28T02:35:24.184Z,69.44
2019-02-28T02:36:24.095Z,69.35
2019-02-28T02:37:26.337Z,69.92
2019-02-28T02:38:23.921Z,70.10
2019-02-28T02:39:23.858Z,69.73
2019-02-28T02:40:24.323Z,69.92
2019-02-28T02:41:23.970Z,69.82
2019-02-28T02:42:23.597Z,69.88
2019-02-28T02:43:23.511Z,70.17
2019-02-28T02:44:23.425Z,70.45
2019-02-28T02:45:23.358Z,70.83
2019-02-28T02:46:23.265Z,70.54
2019-02-28T02:47:23.173Z,70.93
2019-02-28T02:48:23.099Z,71.12
2019-02-28T02:49:23.010Z,70.74
2019-02-28T02:50:22.927Z,71.31
2019-02-28T02:51:22.847Z,71.22
2019-02-28T02:52:27.984Z,71.12
2019-02-28T02:53:22.671Z,71.22
2019-02-28T02:54:22.586Z,71.22
2019-02-28T02:55:28.005Z,70.93
2019-02-28T02:56:22.422Z,71.69
2019-02-28T02:57:22.345Z,71.41
2019-02-28T02:58:26.737Z,71.69
2019-02-28T02:59:22.172Z,71.69
2019-02-28T03:00:22.085Z,71.41
2019-02-28T03:01:23.163Z,71.78
2019-02-28T03:02:21.922Z,71.50
2019-02-28T03:03:21.836Z,71.69
2019-02-28T03:04:23.211Z,71.69
2019-02-28T03:05:21.715Z,71.97
2019-02-28T03:06:21.586Z,72.07
2019-02-28T03:07:24.623Z,71.97
2019-02-28T03:08:21.424Z,72.16
2019-02-28T03:09:21.339Z,72.16
2019-02-28T03:10:21.257Z,72.16
2019-02-28T03:11:24.679Z,72.35
2019-02-28T03:12:21.089Z,72.26
2019-02-28T03:13:20.999Z,72.92
2019-02-28T03:14:20.923Z,72.92
2019-02-28T03:15:26.982Z,72.83
2019-02-28T03:16:20.750Z,72.74
2019-02-28T03:17:20.674Z,72.74
2019-02-28T03:18:20.712Z,73.11
2019-02-28T03:19:20.517Z,73.30
2019-02-28T03:20:20.416Z,73.21
2019-02-28T03:21:20.343Z,73.02
2019-02-28T03:22:20.251Z,72.39
2019-02-28T03:23:20.163Z,73.53
2019-02-28T03:24:20.088Z,73.72
2019-02-28T03:25:20.012Z,73.06
2019-02-28T03:26:19.914Z,73.49
2019-02-28T03:27:20.130Z,73.49
2019-02-28T03:28:19.749Z,73.88
2019-02-28T03:29:19.665Z,73.78
2019-02-28T03:30:27.590Z,74.35
2019-02-28T03:31:19.528Z,74.07
2019-02-28T03:32:19.423Z,74.63
2019-02-28T03:33:27.457Z,74.92
2019-02-28T03:34:19.262Z,75.02
2019-02-28T03:35:19.166Z,74.92
2019-02-28T03:36:19.080Z,74.82
2019-02-28T03:37:19.000Z,75.21
2019-02-28T03:38:18.922Z,75.30
2019-02-28T03:39:24.214Z,75.87
2019-02-28T03:40:18.754Z,75.68
2019-02-28T03:41:18.922Z,75.40
2019-02-28T03:42:18.589Z,75.96
2019-02-28T03:43:18.503Z,76.35
2019-02-28T03:44:21.308Z,76.16
2019-02-28T03:45:18.338Z,76.73
2019-02-28T03:46:18.240Z,76.63
2019-02-28T03:47:22.686Z,76.82
2019-02-28T03:48:18.081Z,76.63
2019-02-28T03:49:17.993Z,76.63
2019-02-28T03:50:21.911Z,77.30
2019-02-28T03:51:17.830Z,77.11
2019-02-28T03:52:17.764Z,76.92
2019-02-28T03:53:20.137Z,77.11
2019-02-28T03:54:17.578Z,77.11
2019-02-28T03:55:17.492Z,77.49
2019-02-28T03:56:17.404Z,77.49
2019-02-28T03:57:17.329Z,77.55
2019-02-28T03:58:17.241Z,77.68
2019-02-28T03:59:18.979Z,77.83
2019-02-28T04:00:17.091Z,77.97
2019-02-28T04:01:16.991Z,77.73
2019-02-28T04:02:20.797Z,77.92
2019-02-28T04:03:16.830Z,78.40
2019-02-28T04:04:16.742Z,77.87
2019-02-28T04:05:16.656Z,78.11
2019-02-28T04:06:16.573Z,77.97
2019-02-28T04:07:17.090Z,78.53
2019-02-28T04:08:16.404Z,78.50
2019-02-28T04:09:16.319Z,78.69
2019-02-28T04:10:16.746Z,78.88
2019-02-28T04:11:16.154Z,78.88
2019-02-28T04:12:16.071Z,78.69
2019-02-28T04:13:19.217Z,78.78
2019-02-28T04:14:15.942Z,78.78
2019-02-28T04:15:15.819Z,78.59
2019-02-28T04:16:15.731Z,78.97
2019-02-28T04:17:15.655Z,79.25
2019-02-28T04:18:15.570Z,79.54
2019-02-28T04:19:21.292Z,79.16
2019-02-28T04:20:15.419Z,79.16
2019-02-28T04:21:15.473Z,79.25
2019-02-28T04:22:15.230Z,79.16
2019-02-28T04:23:15.156Z,79.44
2019-02-28T04:24:15.070Z,79.44
2019-02-28T04:25:14.982Z,79.63
2019-02-28T04:26:14.895Z,79.54
2019-02-28T04:27:14.819Z,79.54
2019-02-28T04:28:18.728Z,79.35
2019-02-28T04:29:14.646Z,79.63
2019-02-28T04:30:14.574Z,79.73
2019-02-28T04:31:18.859Z,79.73
2019-02-28T04:32:14.397Z,79.73
2019-02-28T04:33:14.320Z,79.92
2019-02-28T04:34:14.461Z,79.73
2019-02-28T04:35:14.146Z,79.83
2019-02-28T04:36:14.056Z,79.73
2019-02-28T04:37:13.983Z,79.35
2019-02-28T04:38:13.896Z,79.73
2019-02-28T04:39:13.806Z,79.73
2019-02-28T04:40:13.721Z,79.73
2019-02-28T04:41:13.900Z,79.83
2019-02-28T04:42:13.570Z,79.92
2019-02-28T04:43:13.471Z,80.11
2019-02-28T04:44:15.388Z,80.11
2019-02-28T04:45:13.311Z,80.40
2019-02-28T04:46:13.222Z,80.30
2019-02-28T04:47:13.134Z,80.30
2019-02-28T04:48:14.028Z,80.30
2019-02-28T04:49:12.971Z,80.21
2019-02-28T04:50:12.888Z,80.87
2019-02-28T04:51:12.808Z,80.77
2019-02-28T04:52:12.875Z,81.16
2019-02-28T04:53:12.636Z,80.96
2019-02-28T04:54:12.574Z,80.96
2019-02-28T04:55:12.472Z,80.96
2019-02-28T04:56:12.385Z,81.16
2019-02-28T04:57:12.297Z,80.96
2019-02-28T04:58:12.223Z,81.16
2019-02-28T04:59:12.136Z,81.25
2019-02-28T05:00:12.051Z,81.35
2019-02-28T05:01:12.581Z,81.54
2019-02-28T05:02:11.898Z,81.35
2019-02-28T05:03:11.798Z,81.35
2019-02-28T05:04:11.710Z,81.25
2019-02-28T05:05:12.786Z,81.25
2019-02-28T05:06:11.549Z,81.63
2019-02-28T05:07:11.460Z,81.35
2019-02-28T05:08:11.375Z,81.73
2019-02-28T05:09:14.539Z,81.63
2019-02-28T05:10:11.210Z,81.82
2019-02-28T05:11:11.123Z,81.25
2019-02-28T05:12:11.059Z,81.25
2019-02-28T05:13:11.385Z,81.82
2019-02-28T05:14:10.878Z,81.54
2019-02-28T05:15:10.785Z,82.29
2019-02-28T05:16:12.355Z,81.92
2019-02-28T05:17:10.626Z,81.92
2019-02-28T05:18:10.549Z,81.92
2019-02-28T05:19:10.450Z,82.01
2019-02-28T05:20:11.024Z,82.10
2019-02-28T05:21:10.286Z,81.92
2019-02-28T05:22:10.199Z,82.01
2019-02-28T05:23:10.124Z,82.49
2019-02-28T05:24:10.039Z,82.49
2019-02-28T05:25:09.952Z,82.49
2019-02-28T05:26:09.862Z,82.58
2019-02-28T05:27:09.787Z,82.96
2019-02-28T05:28:09.700Z,83.44
2019-02-28T05:29:11.834Z,83.15
2019-02-28T05:30:09.537Z,83.34
2019-02-28T05:31:09.450Z,83.01
2019-02-28T05:32:09.375Z,83.44
2019-02-28T05:33:09.278Z,83.68
2019-02-28T05:34:09.201Z,83.87
2019-02-28T05:35:09.117Z,83.87
2019-02-28T05:36:09.026Z,83.59
2019-02-28T05:37:12.123Z,83.39
2019-02-28T05:38:08.863Z,84.25
2019-02-28T05:39:08.777Z,84.39
2019-02-28T05:40:08.688Z,84.34
2019-02-28T05:41:08.853Z,84.16
2019-02-28T05:42:08.527Z,84.06
2019-02-28T05:43:08.446Z,84.63
2019-02-28T05:44:08.358Z,84.53
2019-02-28T05:45:08.278Z,84.58
2019-02-28T05:46:08.189Z,84.53
2019-02-28T05:47:08.103Z,85.15
2019-02-28T05:48:08.027Z,84.72
2019-02-28T05:49:08.773Z,84.82
2019-02-28T05:50:07.854Z,84.91
2019-02-28T05:51:07.765Z,85.15
2019-02-28T05:52:07.679Z,84.95
2019-02-28T05:53:09.293Z,85.01
2019-02-28T05:54:07.515Z,84.82
2019-02-28T05:55:07.428Z,84.67
2019-02-28T05:56:07.352Z,84.95
2019-02-28T05:57:08.088Z,85.15
2019-02-28T05:58:07.178Z,85.05
2019-02-28T05:59:07.091Z,84.67
2019-02-28T06:00:07.018Z,84.67
2019-02-28T06:01:08.718Z,84.67
2019-02-28T06:02:06.855Z,84.86
2019-02-28T06:03:06.757Z,85.05
2019-02-28T06:04:06.680Z,85.15
2019-02-28T06:05:08.376Z,85.58
2019-02-28T06:06:08.012Z,85.81
2019-02-28T06:07:06.417Z,85.68
2019-02-28T06:08:06.341Z,86.15
2019-02-28T06:09:06.254Z,86.15
2019-02-28T06:10:06.169Z,86.15
2019-02-28T06:11:06.082Z,86.24
2019-02-28T06:12:06.677Z,86.29
2019-02-28T06:13:05.917Z,86.29
2019-02-28T06:14:05.831Z,86.19
2019-02-28T06:15:05.756Z,86.63
2019-02-28T06:16:11.326Z,86.00
2019-02-28T06:17:05.581Z,86.82
2019-02-28T06:18:05.492Z,86.57
2019-02-28T06:19:08.376Z,86.63
2019-02-28T06:20:05.331Z,86.57
2019-02-28T06:21:05.244Z,86.72
2019-02-28T06:22:05.157Z,86.76
2019-02-28T06:23:06.389Z,87.29
2019-02-28T06:24:04.993Z,87.38
2019-02-28T06:25:04.911Z,87.67
2019-02-28T06:26:04.826Z,87.38
2019-02-28T06:27:06.606Z,87.48
2019-02-28T06:28:04.657Z,87.43
2019-02-28T06:29:04.960Z,87.57
2019-02-28T06:30:04.507Z,87.62
2019-02-28T06:31:04.411Z,88.09
2019-02-28T06:32:04.318Z,87.62
2019-02-28T06:33:04.236Z,87.62
2019-02-28T06:34:05.695Z,88.19
2019-02-28T06:35:04.070Z,87.71
2019-02-28T06:36:04.620Z,87.62
2019-02-28T06:37:04.519Z,87.62
2019-02-28T06:38:06.596Z,87.71
2019-02-28T06:39:03.735Z,87.62
2019-02-28T06:40:03.646Z,87.71
2019-02-28T06:41:04.303Z,87.62
2019-02-28T06:42:03.500Z,87.81
2019-02-28T06:43:03.408Z,87.43
2019-02-28T06:44:03.308Z,87.62
2019-02-28T06:45:03.788Z,88.19
2019-02-28T06:46:03.754Z,87.52
2019-02-28T06:47:03.059Z,87.71
2019-02-28T06:48:02.973Z,87.52
2019-02-28T06:49:06.987Z,86.99
2019-02-28T06:50:02.809Z,87.05
2019-02-28T06:51:02.735Z,86.90
2019-02-28T06:52:02.635Z,86.61
2019-02-28T06:53:02.560Z,86.71
2019-02-28T06:54:04.358Z,86.99
2019-02-28T06:55:02.385Z,86.90
2019-02-28T06:56:02.311Z,87.09
2019-02-28T06:57:02.244Z,86.61
2019-02-28T06:58:02.137Z,86.71
2019-02-28T06:59:04.937Z,87.19
2019-02-28T07:00:01.975Z,86.99
2019-02-28T07:01:02.136Z,86.99
2019-02-28T07:02:01.797Z,86.90
2019-02-28T07:03:03.306Z,86.90
2019-02-28T07:04:01.636Z,86.80
2019-02-28T07:05:01.547Z,86.61
2019-02-28T07:06:01.988Z,86.05
2019-02-28T07:07:01.387Z,86.24
2019-02-28T07:08:01.300Z,86.09
2019-02-28T07:09:02.496Z,86.28
2019-02-28T07:10:01.137Z,85.80
2019-02-28T07:11:01.048Z,85.99
2019-02-28T07:12:00.961Z,85.33
2019-02-28T07:13:03.989Z,85.99
2019-02-28T07:14:00.798Z,85.14
2019-02-28T07:15:00.716Z,85.28
2019-02-28T07:16:00.639Z,83.94
2019-02-28T07:17:00.549Z,83.47
2019-02-28T07:18:00.462Z,83.18
2019-02-28T07:19:00.388Z,82.18
2019-02-28T07:20:01.979Z,81.41
2019-02-28T07:21:00.221Z,82.32
2019-02-28T07:22:00.125Z,82.23
2019-02-28T07:23:00.050Z,82.23
2019-02-28T07:24:02.476Z,82.23
2019-02-28T07:24:59.875Z,82.37
2019-02-28T07:25:59.802Z,82.32
2019-02-28T07:26:59.713Z,82.37
2019-02-28T07:28:01.550Z,82.03
2019-02-28T07:28:59.550Z,80.79
2019-02-28T07:29:59.464Z,79.74
2019-02-28T07:30:59.376Z,79.83
2019-02-28T07:32:01.236Z,79.30
2019-02-28T07:32:59.215Z,78.73
2019-02-28T07:33:59.138Z,78.16
2019-02-28T07:34:59.051Z,78.78
2019-02-28T07:35:58.976Z,79.27
2019-02-28T07:36:58.889Z,78.88
2019-02-28T07:37:58.804Z,79.30
2019-02-28T07:39:01.332Z,78.25
2019-02-28T07:39:58.639Z,77.78
2019-02-28T07:40:58.818Z,78.25
2019-02-28T07:41:58.892Z,77.87
2019-02-28T07:42:58.391Z,78.54
2019-02-28T07:43:59.095Z,78.25
2019-02-28T07:44:58.990Z,78.06
2019-02-28T07:45:58.140Z,78.54
2019-02-28T07:46:58.065Z,77.97
2019-02-28T07:47:57.978Z,78.31
2019-02-28T07:49:00.910Z,79.83
2019-02-28T07:49:57.821Z,79.74
2019-02-28T07:50:59.207Z,79.74
2019-02-28T07:51:57.980Z,79.74
2019-02-28T07:52:57.566Z,79.83
2019-02-28T07:53:57.546Z,79.74
2019-02-28T07:54:57.403Z,79.83
2019-02-28T07:55:57.338Z,81.13
2019-02-28T07:56:57.241Z,81.23
2019-02-28T07:57:57.166Z,81.89
2019-02-28T07:58:57.082Z,82.18
2019-02-28T07:59:56.995Z,82.75
2019-02-28T08:00:56.918Z,82.99
2019-02-28T08:01:59.868Z,83.47
2019-02-28T08:02:56.753Z,83.56
2019-02-28T08:03:56.667Z,83.85
2019-02-28T08:04:56.592Z,83.85
2019-02-28T08:05:56.504Z,83.85
2019-02-28T08:06:56.417Z,83.65
2019-02-28T08:07:56.391Z,84.13
2019-02-28T08:08:56.255Z,84.23
2019-02-28T08:09:58.043Z,83.85
2019-02-28T08:10:56.094Z,84.33
2019-02-28T08:11:56.732Z,84.99
2019-02-28T08:12:55.931Z,84.52
2019-02-28T08:13:55.844Z,84.42
2019-02-28T08:14:55.768Z,84.89
2019-02-28T08:15:56.427Z,85.37
2019-02-28T08:16:55.593Z,85.18
2019-02-28T08:17:55.518Z,84.89
2019-02-28T08:18:55.430Z,84.89
2019-02-28T08:19:58.686Z,84.33
2019-02-28T08:20:55.269Z,84.46
2019-02-28T08:21:55.181Z,84.17
2019-02-28T08:22:56.642Z,83.89
2019-02-28T08:23:55.021Z,84.46
2019-02-28T08:24:54.948Z,83.89
2019-02-28T08:25:54.873Z,83.93
2019-02-28T08:26:54.769Z,82.79
2019-02-28T08:27:59.183Z,82.60
2019-02-28T08:28:54.609Z,82.31
2019-02-28T08:29:54.532Z,81.84
2019-02-28T08:30:55.360Z,80.98
2019-02-28T08:31:54.357Z,80.73
2019-02-28T08:32:54.282Z,80.54
2019-02-28T08:33:54.195Z,79.97
2019-02-28T08:34:55.591Z,79.35
2019-02-28T08:35:54.032Z,78.58
2019-02-28T08:36:53.947Z,77.86
2019-02-28T08:37:57.098Z,77.53
2019-02-28T08:38:53.782Z,77.62
2019-02-28T08:39:53.708Z,78.10
2019-02-28T08:40:53.621Z,77.91
2019-02-28T08:41:53.546Z,78.39
2019-02-28T08:42:53.458Z,78.14
2019-02-28T08:43:53.383Z,77.28
2019-02-28T08:44:58.106Z,76.71
2019-02-28T08:45:53.209Z,77.13
2019-02-28T08:46:53.133Z,75.76
2019-02-28T08:47:56.726Z,75.70
2019-02-28T08:48:52.974Z,75.70
2019-02-28T08:49:52.890Z,75.42
2019-02-28T08:50:55.604Z,75.03
2019-02-28T08:51:52.723Z,74.90
2019-02-28T08:52:52.649Z,75.95
2019-02-28T08:53:52.559Z,76.42
2019-02-28T08:54:52.485Z,75.60
2019-02-28T08:55:52.399Z,75.09
2019-02-28T08:56:52.324Z,75.26
2019-02-28T08:57:55.913Z,74.49
2019-02-28T08:58:52.160Z,73.10
2019-02-28T08:59:52.507Z,73.25
2019-02-28T09:00:52.249Z,72.53
2019-02-28T09:01:51.913Z,72.53
2019-02-28T09:02:52.943Z,71.86
2019-02-28T09:03:51.749Z,72.24
2019-02-28T09:04:51.682Z,71.67
2019-02-28T09:05:51.598Z,71.57
2019-02-28T09:06:51.510Z,72.14
2019-02-28T09:07:52.061Z,72.53
2019-02-28T09:08:51.349Z,71.92
2019-02-28T09:09:51.275Z,72.20
2019-02-28T09:10:51.186Z,73.35
2019-02-28T09:11:52.786Z,73.83
2019-02-28T09:12:51.025Z,73.98
2019-02-28T09:13:50.954Z,73.63
2019-02-28T09:14:51.945Z,74.02
2019-02-28T09:15:50.787Z,72.72
2019-02-28T09:16:50.713Z,72.33
2019-02-28T09:17:50.627Z,72.24
2019-02-28T09:18:50.550Z,72.05
2019-02-28T09:19:50.464Z,71.95
2019-02-28T09:20:50.387Z,71.13
2019-02-28T09:21:52.748Z,71.28
2019-02-28T09:22:50.249Z,70.65
2019-02-28T09:23:50.151Z,70.94
2019-02-28T09:24:50.063Z,69.79
2019-02-28T09:25:49.987Z,69.35
2019-02-28T09:26:49.913Z,70.11
2019-02-28T09:27:49.826Z,68.58
2019-02-28T09:28:49.754Z,68.58
2019-02-28T09:29:54.518Z,68.77
2019-02-28T09:30:49.590Z,68.87
2019-02-28T09:31:49.512Z,68.96
2019-02-28T09:32:49.437Z,68.20
2019-02-28T09:33:49.351Z,68.93
2019-02-28T09:34:49.271Z,69.60
2019-02-28T09:35:49.191Z,70.36
2019-02-28T09:36:49.113Z,70.84
2019-02-28T09:37:49.026Z,70.42
2019-02-28T09:38:56.857Z,71.25
2019-02-28T09:39:51.325Z,72.49
2019-02-28T09:40:48.789Z,72.49
2019-02-28T09:41:48.714Z,73.16
2019-02-28T09:42:51.129Z,73.60
2019-02-28T09:43:48.553Z,74.65
2019-02-28T09:44:48.465Z,74.27
2019-02-28T09:45:48.389Z,74.69
2019-02-28T09:46:50.678Z,74.21
2019-02-28T09:47:48.230Z,74.49
2019-02-28T09:48:48.159Z,73.54
2019-02-28T09:49:48.086Z,72.97
2019-02-28T09:50:47.990Z,72.72
2019-02-28T09:51:47.903Z,72.43
2019-02-28T09:52:47.831Z,72.62
2019-02-28T09:53:50.326Z,71.76
2019-02-28T09:54:47.665Z,71.57
2019-02-28T09:55:47.591Z,72.14
2019-02-28T09:56:47.503Z,72.01
2019-02-28T09:57:50.443Z,72.24
2019-02-28T09:58:47.340Z,71.92
2019-02-28T09:59:47.267Z,72.58
2019-02-28T10:00:50.272Z,72.68
2019-02-28T10:01:47.104Z,72.49
2019-02-28T10:02:47.017Z,72.87
2019-02-28T10:03:46.955Z,72.20
2019-02-28T10:04:46.868Z,72.49
2019-02-28T10:05:46.780Z,72.58
2019-02-28T10:06:48.564Z,72.58
2019-02-28T10:07:46.617Z,72.49
2019-02-28T10:08:46.555Z,71.95
2019-02-28T10:09:47.266Z,71.76
2019-02-28T10:10:46.380Z,71.76
2019-02-28T10:11:46.292Z,72.24
2019-02-28T10:12:46.217Z,72.43
2019-02-28T10:13:46.131Z,71.15
2019-02-28T10:14:46.055Z,71.38
2019-02-28T10:15:45.969Z,71.19
2019-02-28T10:16:45.892Z,70.90
2019-02-28T10:17:45.818Z,70.71
2019-02-28T10:18:45.731Z,70.77
2019-02-28T10:19:46.112Z,71.28
2019-02-28T10:20:45.568Z,70.77
2019-02-28T10:21:51.686Z,71.28
2019-02-28T10:22:47.319Z,71.38
2019-02-28T10:23:45.337Z,71.19
2019-02-28T10:24:45.243Z,71.63
2019-02-28T10:25:45.168Z,71.72
2019-02-28T10:26:45.085Z,72.11
2019-02-28T10:27:45.011Z,71.57
2019-02-28T10:28:44.921Z,71.38
2019-02-28T10:29:44.844Z,70.71
2019-02-28T10:30:47.174Z,70.33
2019-02-28T10:31:44.683Z,70.90
2019-02-28T10:32:44.607Z,70.90
2019-02-28T10:33:44.519Z,70.14
2019-02-28T10:34:44.444Z,71.06
2019-02-28T10:35:44.359Z,71.44
2019-02-28T10:36:47.396Z,72.11
2019-02-28T10:37:44.197Z,72.68
2019-02-28T10:38:44.119Z,72.30
2019-02-28T10:39:44.045Z,72.01
2019-02-28T10:40:43.958Z,72.68
2019-02-28T10:41:43.883Z,71.44
2019-02-28T10:42:43.795Z,71.82
2019-02-28T10:43:43.720Z,72.39
2019-02-28T10:44:43.634Z,73.07
2019-02-28T10:45:43.559Z,72.87
2019-02-28T10:46:43.471Z,73.07
2019-02-28T10:47:43.396Z,72.97
2019-02-28T10:48:50.839Z,72.58
2019-02-28T10:49:43.235Z,72.33
2019-02-28T10:50:43.160Z,72.05
2019-02-28T10:51:47.183Z,72.43
2019-02-28T10:52:42.997Z,72.43
2019-02-28T10:53:42.911Z,71.09
2019-02-28T10:54:42.838Z,71.19
2019-02-28T10:55:42.746Z,71.19
2019-02-28T10:56:42.671Z,71.03
2019-02-28T10:57:42.596Z,70.65
2019-02-28T10:58:42.510Z,71.19
2019-02-28T10:59:42.423Z,71.57
2019-02-28T11:00:42.360Z,71.09
2019-02-28T11:01:42.726Z,71.22
2019-02-28T11:02:42.196Z,71.32
2019-02-28T11:03:42.100Z,71.32
2019-02-28T11:04:43.721Z,70.71
2019-02-28T11:05:41.950Z,71.03
2019-02-28T11:06:41.860Z,70.65
2019-02-28T11:07:41.786Z,70.84
2019-02-28T11:08:44.433Z,70.84
2019-02-28T11:09:41.623Z,70.07
2019-02-28T11:10:41.536Z,70.17
2019-02-28T11:11:42.600Z,70.17
2019-02-28T11:12:41.387Z,69.41
2019-02-28T11:13:41.298Z,69.64
2019-02-28T11:14:41.223Z,68.77
2019-02-28T11:15:41.142Z,68.13
2019-02-28T11:16:41.062Z,67.37
2019-02-28T11:17:40.986Z,66.93
2019-02-28T11:18:41.919Z,66.25
2019-02-28T11:19:40.824Z,65.26
2019-02-28T11:20:40.988Z,66.06
2019-02-28T11:21:40.662Z,65.20
2019-02-28T11:22:40.966Z,65.45
2019-02-28T11:23:40.499Z,65.84
2019-02-28T11:24:40.424Z,65.78
2019-02-28T11:25:40.338Z,65.97
2019-02-28T11:26:41.298Z,66.06
2019-02-28T11:27:40.175Z,66.48
2019-02-28T11:28:40.113Z,66.09
2019-02-28T11:29:40.025Z,65.20
2019-02-28T11:30:44.265Z,65.39
2019-02-28T11:31:39.871Z,64.47
2019-02-28T11:32:39.791Z,64.28
2019-02-28T11:33:40.336Z,64.37
2019-02-28T11:34:39.630Z,64.47
2019-02-28T11:35:39.550Z,64.28
2019-02-28T11:36:39.470Z,65.14
2019-02-28T11:37:42.259Z,64.98
2019-02-28T11:38:39.314Z,63.06
2019-02-28T11:39:39.225Z,62.87
2019-02-28T11:40:40.418Z,62.36
2019-02-28T11:41:39.076Z,60.82
2019-02-28T11:42:38.997Z,59.89
2019-02-28T11:43:38.915Z,59.86
2019-02-28T11:44:38.840Z,59.77
2019-02-28T11:45:38.764Z,59.86
2019-02-28T11:46:38.678Z,60.00
2019-02-28T11:47:38.602Z,60.76
2019-02-28T11:48:38.528Z,61.56
2019-02-28T11:49:38.452Z,60.99
2019-02-28T11:50:41.218Z,60.63
2019-02-28T11:51:38.291Z,59.77
2019-02-28T11:52:38.215Z,59.77
2019-02-28T11:53:40.301Z,59.77
2019-02-28T11:54:38.066Z,58.84
2019-02-28T11:55:37.992Z,59.00
2019-02-28T11:56:37.905Z,58.84
2019-02-28T11:57:41.031Z,58.64
2019-02-28T11:58:37.753Z,58.45
2019-02-28T11:59:37.699Z,58.45
2019-02-28T12:00:37.614Z,58.48
2019-02-28T12:01:37.528Z,58.48
2019-02-28T12:02:37.453Z,57.81
2019-02-28T12:03:37.366Z,56.68
2019-02-28T12:04:37.510Z,56.14
2019-02-28T12:05:37.217Z,56.49
2019-02-28T12:06:37.142Z,56.56
2019-02-28T12:07:37.067Z,57.50
2019-02-28T12:08:36.994Z,58.97
2019-02-28T12:09:36.907Z,60.22
2019-02-28T12:10:36.829Z,60.41
2019-02-28T12:11:37.205Z,59.93
2019-02-28T12:12:36.680Z,59.77
2019-02-28T12:13:36.607Z,58.94
2019-02-28T12:14:36.543Z,57.65
2019-02-28T12:15:38.158Z,56.88
2019-02-28T12:16:36.373Z,56.59
2019-02-28T12:17:36.293Z,56.33
2019-02-28T12:18:39.493Z,55.56
2019-02-28T12:19:36.144Z,54.60
2019-02-28T12:20:36.073Z,54.05
2019-02-28T12:21:38.127Z,53.57
2019-02-28T12:22:35.918Z,53.50
2019-02-28T12:23:35.848Z,53.66
2019-02-28T12:24:35.757Z,53.83
2019-02-28T12:25:35.687Z,53.74
2019-02-28T12:26:35.606Z,54.09
2019-02-28T12:27:35.531Z,54.77
2019-02-28T12:28:38.218Z,55.63
2019-02-28T12:29:35.393Z,56.53
2019-02-28T12:30:35.306Z,56.95
2019-02-28T12:31:35.767Z,57.21
2019-02-28T12:32:35.157Z,57.75
2019-02-28T12:33:35.083Z,58.52
2019-02-28T12:34:35.014Z,59.06
2019-02-28T12:35:40.011Z,59.93
2019-02-28T12:36:34.845Z,59.93
2019-02-28T12:37:34.771Z,59.06
2019-02-28T12:38:34.696Z,59.00
2019-02-28T12:39:36.382Z,59.45
2019-02-28T12:40:34.550Z,59.48
2019-02-28T12:41:34.475Z,58.84
2019-02-28T12:42:34.585Z,57.43
2019-02-28T12:43:34.321Z,56.63
2019-02-28T12:44:34.234Z,56.76
2019-02-28T12:45:34.161Z,57.21
2019-02-28T12:46:34.083Z,57.68
2019-02-28T12:47:34.009Z,57.23
2019-02-28T12:48:33.934Z,57.01
2019-02-28T12:49:33.860Z,57.68
2019-02-28T12:50:33.783Z,57.52
2019-02-28T12:51:36.582Z,57.71